Terminal Aerodrome Forecast
Issued by NWS

Home | Current Version | Previous Version | Graphics & Text | Print | Product List | Glossary On
Versions: 1 2 3 4 5 6 7 8 9 10 11 12 13 14 15 16 17 18
470
FTUS43 KMPX 291243 AAB
TAFAXN
TAF AMD
KAXN 291243Z 2913/3012 VRB03KT P6SM FEW002
     FM291500 05008KT P6SM SCT040=

USA.gov is the U.S. government's official web portal to all federal, state and local government web resources and services.